sensor_id;sensor_type;location;lat;lon;timestamp;temperature;humidity
29551;DHT22;16488;52.396;10.696;2023-08-01T00:01:56;16.30;99.90
29551;DHT22;16488;52.396;10.696;2023-08-01T00:04:22;16.40;99.90
29551;DHT22;16488;52.396;10.696;2023-08-01T00:06:48;16.40;99.90
29551;DHT22;16488;52.396;10.696;2023-08-01T00:09:13;16.40;99.90
29551;DHT22;16488;52.396;10.696;2023-08-01T00:11:39;16.40;99.90
29551;DHT22;16488;52.396;10.696;2023-08-01T00:17:27;16.40;99.90
29551;DHT22;16488;52.396;10.696;2023-08-01T00:19:52;16.40;99.90
29551;DHT22;16488;52.396;10.696;2023-08-01T00:22:18;16.50;99.90
29551;DHT22;16488;52.396;10.696;2023-08-01T00:24:43;16.40;99.90
29551;DHT22;16488;52.396;10.696;2023-08-01T00:27:09;16.50;99.90
29551;DHT22;16488;52.396;10.696;2023-08-01T00:29:36;16.50;99.90
29551;DHT22;16488;52.396;10.696;2023-08-01T00:32:01;16.50;99.90
29551;DHT22;16488;52.396;10.696;2023-08-01T00:34:27;16.50;99.90
29551;DHT22;16488;52.396;10.696;2023-08-01T00:36:53;16.50;99.90
29551;DHT22;16488;52.396;10.696;2023-08-01T00:39:18;16.50;99.90
29551;DHT22;16488;52.396;10.696;2023-08-01T00:41:44;16.50;99.90
29551;DHT22;16488;52.396;10.696;2023-08-01T00:44:09;16.50;99.90
29551;DHT22;16488;52.396;10.696;2023-08-01T00:46:35;16.50;99.90
29551;DHT22;16488;52.396;10.696;2023-08-01T00:49:02;16.50;99.90
29551;DHT22;16488;52.396;10.696;2023-08-01T00:51:27;16.50;99.90
29551;DHT22;16488;52.396;10.696;2023-08-01T00:53:54;16.60;99.90
29551;DHT22;16488;52.396;10.696;2023-08-01T00:56:20;16.50;99.90
29551;DHT22;16488;52.396;10.696;2023-08-01T00:58:46;16.60;99.90
29551;DHT22;16488;52.396;10.696;2023-08-01T01:01:12;16.60;99.90
29551;DHT22;16488;52.396;10.696;2023-08-01T01:03:38;16.60;99.90
29551;DHT22;16488;52.396;10.696;2023-08-01T01:06:24;16.60;99.90
29551;DHT22;16488;52.396;10.696;2023-08-01T01:08:50;16.60;99.90
29551;DHT22;16488;52.396;10.696;2023-08-01T01:11:16;16.60;99.90
29551;DHT22;16488;52.396;10.696;2023-08-01T01:13:41;16.60;99.90
29551;DHT22;16488;52.396;10.696;2023-08-01T01:16:07;16.60;99.90
29551;DHT22;16488;52.396;10.696;2023-08-01T01:18:32;16.60;99.90
29551;DHT22;16488;52.396;10.696;2023-08-01T01:20:58;16.60;99.90
29551;DHT22;16488;52.396;10.696;2023-08-01T01:23:24;16.60;99.90
29551;DHT22;16488;52.396;10.696;2023-08-01T01:25:51;16.60;99.90
29551;DHT22;16488;52.396;10.696;2023-08-01T01:28:19;16.60;99.90
29551;DHT22;16488;52.396;10.696;2023-08-01T01:30:46;16.60;99.90
29551;DHT22;16488;52.396;10.696;2023-08-01T01:33:14;16.60;99.90
29551;DHT22;16488;52.396;10.696;2023-08-01T01:35:40;16.60;99.90
29551;DHT22;16488;52.396;10.696;2023-08-01T01:38:06;16.60;99.90
29551;DHT22;16488;52.396;10.696;2023-08-01T01:40:33;16.60;99.90
29551;DHT22;16488;52.396;10.696;2023-08-01T01:42:59;16.60;99.90
29551;DHT22;16488;52.396;10.696;2023-08-01T01:45:26;16.60;99.90
29551;DHT22;16488;52.396;10.696;2023-08-01T01:47:52;16.60;99.90
29551;DHT22;16488;52.396;10.696;2023-08-01T01:50:17;16.60;99.90
29551;DHT22;16488;52.396;10.696;2023-08-01T01:52:44;16.60;99.90
29551;DHT22;16488;52.396;10.696;2023-08-01T01:55:09;16.70;99.90
29551;DHT22;16488;52.396;10.696;2023-08-01T01:57:35;16.60;99.90
29551;DHT22;16488;52.396;10.696;2023-08-01T02:00:06;16.60;99.90
29551;DHT22;16488;52.396;10.696;2023-08-01T02:02:35;16.60;99.90
29551;DHT22;16488;52.396;10.696;2023-08-01T02:05:01;16.60;99.90
29551;DHT22;16488;52.396;10.696;2023-08-01T02:07:27;16.60;99.90
29551;DHT22;16488;52.396;10.696;2023-08-01T02:09:52;16.60;99.90
29551;DHT22;16488;52.396;10.696;2023-08-01T02:12:18;16.50;99.90
29551;DHT22;16488;52.396;10.696;2023-08-01T02:14:43;16.60;99.90
29551;DHT22;16488;52.396;10.696;2023-08-01T02:17:09;16.50;99.90
29551;DHT22;16488;52.396;10.696;2023-08-01T02:19:35;16.60;99.90
29551;DHT22;16488;52.396;10.696;2023-08-01T02:22:00;16.60;99.90
29551;DHT22;16488;52.396;10.696;2023-08-01T02:24:26;16.50;99.90
29551;DHT22;16488;52.396;10.696;2023-08-01T02:26:51;16.50;99.90
29551;DHT22;16488;52.396;10.696;2023-08-01T02:29:17;16.60;99.90
29551;DHT22;16488;52.396;10.696;2023-08-01T02:31:43;16.60;99.90
29551;DHT22;16488;52.396;10.696;2023-08-01T02:34:08;16.60;99.90
29551;DHT22;16488;52.396;10.696;2023-08-01T02:36:34;16.60;99.90
29551;DHT22;16488;52.396;10.696;2023-08-01T02:38:59;16.60;99.90
29551;DHT22;16488;52.396;10.696;2023-08-01T02:41:25;16.60;99.90
29551;DHT22;16488;52.396;10.696;2023-08-01T02:43:51;16.60;99.90
29551;DHT22;16488;52.396;10.696;2023-08-01T02:46:16;16.60;99.90
29551;DHT22;16488;52.396;10.696;2023-08-01T02:48:42;16.60;99.90
29551;DHT22;16488;52.396;10.696;2023-08-01T02:51:08;16.60;99.90
29551;DHT22;16488;52.396;10.696;2023-08-01T02:53:35;16.60;99.90
29551;DHT22;16488;52.396;10.696;2023-08-01T02:56:01;16.60;99.90
29551;DHT22;16488;52.396;10.696;2023-08-01T02:58:27;16.60;99.90
29551;DHT22;16488;52.396;10.696;2023-08-01T03:00:52;16.60;99.90
29551;DHT22;16488;52.396;10.696;2023-08-01T03:03:18;16.50;99.90
29551;DHT22;16488;52.396;10.696;2023-08-01T03:05:43;16.50;99.90
29551;DHT22;16488;52.396;10.696;2023-08-01T03:08:09;16.50;99.90
29551;DHT22;16488;52.396;10.696;2023-08-01T03:10:35;16.50;99.90
29551;DHT22;16488;52.396;10.696;2023-08-01T03:13:00;16.50;99.90
29551;DHT22;16488;52.396;10.696;2023-08-01T03:15:27;16.40;99.90
29551;DHT22;16488;52.396;10.696;2023-08-01T03:17:52;16.40;99.90
29551;DHT22;16488;52.396;10.696;2023-08-01T03:20:18;16.30;99.90
29551;DHT22;16488;52.396;10.696;2023-08-01T03:22:43;16.30;99.90
29551;DHT22;16488;52.396;10.696;2023-08-01T03:25:09;16.30;99.90
29551;DHT22;16488;52.396;10.696;2023-08-01T03:27:35;16.20;99.90
29551;DHT22;16488;52.396;10.696;2023-08-01T03:30:00;16.20;99.90
29551;DHT22;16488;52.396;10.696;2023-08-01T03:32:27;16.30;99.90
29551;DHT22;16488;52.396;10.696;2023-08-01T03:34:52;16.30;99.90
29551;DHT22;16488;52.396;10.696;2023-08-01T03:37:18;16.40;99.90
29551;DHT22;16488;52.396;10.696;2023-08-01T03:39:44;16.30;99.90
29551;DHT22;16488;52.396;10.696;2023-08-01T03:42:09;16.30;99.90
29551;DHT22;16488;52.396;10.696;2023-08-01T03:44:35;16.20;99.90
29551;DHT22;16488;52.396;10.696;2023-08-01T03:47:01;16.30;99.90
29551;DHT22;16488;52.396;10.696;2023-08-01T03:49:27;16.30;99.90
29551;DHT22;16488;52.396;10.696;2023-08-01T03:51:52;16.20;99.90
29551;DHT22;16488;52.396;10.696;2023-08-01T03:54:18;16.10;99.90
29551;DHT22;16488;52.396;10.696;2023-08-01T03:56:43;16.20;99.90
29551;DHT22;16488;52.396;10.696;2023-08-01T03:59:14;16.20;99.90
29551;DHT22;16488;52.396;10.696;2023-08-01T04:01:40;16.20;99.90
29551;DHT22;16488;52.396;10.696;2023-08-01T04:04:06;16.20;99.90
29551;DHT22;16488;52.396;10.696;2023-08-01T04:06:32;16.20;99.90
29551;DHT22;16488;52.396;10.696;2023-08-01T04:08:57;16.30;99.90
29551;DHT22;16488;52.396;10.696;2023-08-01T04:11:25;16.30;99.90
29551;DHT22;16488;52.396;10.696;2023-08-01T04:13:51;16.30;99.90
29551;DHT22;16488;52.396;10.696;2023-08-01T04:16:16;16.20;99.90
29551;DHT22;16488;52.396;10.696;2023-08-01T04:18:42;16.20;99.90
29551;DHT22;16488;52.396;10.696;2023-08-01T04:21:08;16.30;99.90
29551;DHT22;16488;52.396;10.696;2023-08-01T04:23:33;16.30;99.90
29551;DHT22;16488;52.396;10.696;2023-08-01T04:25:59;16.40;99.90
29551;DHT22;16488;52.396;10.696;2023-08-01T04:28:25;16.40;99.90
29551;DHT22;16488;52.396;10.696;2023-08-01T04:30:51;16.40;99.90
29551;DHT22;16488;52.396;10.696;2023-08-01T04:33:17;16.40;99.90
29551;DHT22;16488;52.396;10.696;2023-08-01T04:35:42;16.40;99.90
29551;DHT22;16488;52.396;10.696;2023-08-01T04:38:08;16.30;99.90
29551;DHT22;16488;52.396;10.696;2023-08-01T04:40:36;16.20;99.90
29551;DHT22;16488;52.396;10.696;2023-08-01T04:43:02;16.20;99.90
29551;DHT22;16488;52.396;10.696;2023-08-01T04:45:28;16.20;99.90
29551;DHT22;16488;52.396;10.696;2023-08-01T04:47:54;16.20;99.90
29551;DHT22;16488;52.396;10.696;2023-08-01T04:50:20;16.10;99.90
29551;DHT22;16488;52.396;10.696;2023-08-01T04:52:45;16.20;99.90
29551;DHT22;16488;52.396;10.696;2023-08-01T04:55:11;16.10;99.90
29551;DHT22;16488;52.396;10.696;2023-08-01T04:57:37;16.10;99.90
29551;DHT22;16488;52.396;10.696;2023-08-01T05:00:03;16.10;99.90
29551;DHT22;16488;52.396;10.696;2023-08-01T05:02:29;16.10;99.90
29551;DHT22;16488;52.396;10.696;2023-08-01T05:04:55;16.10;99.90
29551;DHT22;16488;52.396;10.696;2023-08-01T05:07:20;16.10;99.90
29551;DHT22;16488;52.396;10.696;2023-08-01T05:09:46;16.20;99.90
29551;DHT22;16488;52.396;10.696;2023-08-01T05:12:11;16.20;99.90
29551;DHT22;16488;52.396;10.696;2023-08-01T05:14:37;16.20;99.90
29551;DHT22;16488;52.396;10.696;2023-08-01T05:17:03;16.20;99.90
29551;DHT22;16488;52.396;10.696;2023-08-01T05:19:29;16.20;99.90
29551;DHT22;16488;52.396;10.696;2023-08-01T05:21:54;16.30;99.90
29551;DHT22;16488;52.396;10.696;2023-08-01T05:24:20;16.30;99.90
29551;DHT22;16488;52.396;10.696;2023-08-01T05:26:47;16.30;99.90
29551;DHT22;16488;52.396;10.696;2023-08-01T05:29:13;16.30;99.90
29551;DHT22;16488;52.396;10.696;2023-08-01T05:31:38;16.30;99.90
29551;DHT22;16488;52.396;10.696;2023-08-01T05:34:04;16.30;99.90
29551;DHT22;16488;52.396;10.696;2023-08-01T05:36:29;16.30;99.90
29551;DHT22;16488;52.396;10.696;2023-08-01T05:38:56;16.40;99.90
29551;DHT22;16488;52.396;10.696;2023-08-01T05:41:21;16.40;99.90
29551;DHT22;16488;52.396;10.696;2023-08-01T05:43:48;16.30;99.90
29551;DHT22;16488;52.396;10.696;2023-08-01T05:46:14;16.40;99.90
29551;DHT22;16488;52.396;10.696;2023-08-01T05:48:40;16.40;99.90
29551;DHT22;16488;52.396;10.696;2023-08-01T05:51:05;16.30;99.90
29551;DHT22;16488;52.396;10.696;2023-08-01T05:53:31;16.30;99.90
29551;DHT22;16488;52.396;10.696;2023-08-01T05:55:57;16.30;99.90
29551;DHT22;16488;52.396;10.696;2023-08-01T05:58:22;16.20;99.90
29551;DHT22;16488;52.396;10.696;2023-08-01T06:00:48;16.20;99.90
29551;DHT22;16488;52.396;10.696;2023-08-01T06:03:14;16.20;99.90
29551;DHT22;16488;52.396;10.696;2023-08-01T06:05:39;16.20;99.90
29551;DHT22;16488;52.396;10.696;2023-08-01T06:08:08;16.10;99.90
29551;DHT22;16488;52.396;10.696;2023-08-01T06:10:35;16.10;99.90
29551;DHT22;16488;52.396;10.696;2023-08-01T06:13:01;16.00;99.90
29551;DHT22;16488;52.396;10.696;2023-08-01T06:15:26;16.10;99.90
29551;DHT22;16488;52.396;10.696;2023-08-01T06:17:52;16.00;99.90
29551;DHT22;16488;52.396;10.696;2023-08-01T06:20:18;16.00;99.90
29551;DHT22;16488;52.396;10.696;2023-08-01T06:22:44;16.00;99.90
29551;DHT22;16488;52.396;10.696;2023-08-01T06:25:09;16.00;99.90
29551;DHT22;16488;52.396;10.696;2023-08-01T06:27:36;16.00;99.90
29551;DHT22;16488;52.396;10.696;2023-08-01T06:30:01;16.00;99.90
29551;DHT22;16488;52.396;10.696;2023-08-01T06:32:27;16.00;99.90
29551;DHT22;16488;52.396;10.696;2023-08-01T06:34:53;16.10;99.90
29551;DHT22;16488;52.396;10.696;2023-08-01T06:37:18;16.10;99.90
29551;DHT22;16488;52.396;10.696;2023-08-01T06:39:44;16.00;99.90
29551;DHT22;16488;52.396;10.696;2023-08-01T06:42:09;16.00;99.90
29551;DHT22;16488;52.396;10.696;2023-08-01T06:44:35;16.00;99.90
29551;DHT22;16488;52.396;10.696;2023-08-01T06:47:01;16.10;99.90
29551;DHT22;16488;52.396;10.696;2023-08-01T06:49:26;16.00;99.90
29551;DHT22;16488;52.396;10.696;2023-08-01T06:51:52;16.00;99.90
29551;DHT22;16488;52.396;10.696;2023-08-01T06:54:17;16.00;99.90
29551;DHT22;16488;52.396;10.696;2023-08-01T06:56:43;16.00;99.90
29551;DHT22;16488;52.396;10.696;2023-08-01T06:59:13;15.90;99.90
29551;DHT22;16488;52.396;10.696;2023-08-01T07:01:40;15.80;99.90
29551;DHT22;16488;52.396;10.696;2023-08-01T07:04:06;15.80;99.90
29551;DHT22;16488;52.396;10.696;2023-08-01T07:06:31;15.80;99.90
29551;DHT22;16488;52.396;10.696;2023-08-01T07:08:57;15.80;99.90
29551;DHT22;16488;52.396;10.696;2023-08-01T07:11:23;15.90;99.90
29551;DHT22;16488;52.396;10.696;2023-08-01T07:13:48;15.90;99.90
29551;DHT22;16488;52.396;10.696;2023-08-01T07:16:14;15.90;99.90
29551;DHT22;16488;52.396;10.696;2023-08-01T07:18:40;16.00;99.90
29551;DHT22;16488;52.396;10.696;2023-08-01T07:21:06;16.00;99.90
29551;DHT22;16488;52.396;10.696;2023-08-01T07:23:34;16.00;99.90
29551;DHT22;16488;52.396;10.696;2023-08-01T07:26:01;16.10;99.90
29551;DHT22;16488;52.396;10.696;2023-08-01T07:28:27;16.10;99.90
29551;DHT22;16488;52.396;10.696;2023-08-01T07:31:03;16.10;99.90
29551;DHT22;16488;52.396;10.696;2023-08-01T07:33:30;16.00;99.90
29551;DHT22;16488;52.396;10.696;2023-08-01T07:35:56;16.10;99.90
29551;DHT22;16488;52.396;10.696;2023-08-01T07:38:22;16.10;99.90
29551;DHT22;16488;52.396;10.696;2023-08-01T07:40:47;16.20;99.90
29551;DHT22;16488;52.396;10.696;2023-08-01T07:43:13;16.10;99.90
29551;DHT22;16488;52.396;10.696;2023-08-01T07:45:39;16.20;99.90
29551;DHT22;16488;52.396;10.696;2023-08-01T07:48:05;16.20;99.90
29551;DHT22;16488;52.396;10.696;2023-08-01T07:50:30;16.10;99.90
29551;DHT22;16488;52.396;10.696;2023-08-01T07:52:56;16.20;99.90
29551;DHT22;16488;52.396;10.696;2023-08-01T07:55:22;16.20;99.90
29551;DHT22;16488;52.396;10.696;2023-08-01T07:57:48;16.20;99.90
29551;DHT22;16488;52.396;10.696;2023-08-01T08:00:14;16.20;99.90
29551;DHT22;16488;52.396;10.696;2023-08-01T08:02:42;16.20;99.90
29551;DHT22;16488;52.396;10.696;2023-08-01T08:05:08;16.30;99.90
29551;DHT22;16488;52.396;10.696;2023-08-01T08:07:34;16.30;99.90
29551;DHT22;16488;52.396;10.696;2023-08-01T08:09:59;16.40;99.90
29551;DHT22;16488;52.396;10.696;2023-08-01T08:12:25;16.40;99.90
29551;DHT22;16488;52.396;10.696;2023-08-01T08:14:51;16.40;99.90
29551;DHT22;16488;52.396;10.696;2023-08-01T08:17:16;16.40;99.90
29551;DHT22;16488;52.396;10.696;2023-08-01T08:19:42;16.40;99.90
29551;DHT22;16488;52.396;10.696;2023-08-01T08:22:07;16.40;99.90
29551;DHT22;16488;52.396;10.696;2023-08-01T08:24:33;16.40;99.90
29551;DHT22;16488;52.396;10.696;2023-08-01T08:26:59;16.40;99.90
29551;DHT22;16488;52.396;10.696;2023-08-01T08:29:24;16.40;99.90
29551;DHT22;16488;52.396;10.696;2023-08-01T08:31:50;16.50;99.90
29551;DHT22;16488;52.396;10.696;2023-08-01T08:34:15;16.50;99.90
29551;DHT22;16488;52.396;10.696;2023-08-01T08:36:41;16.70;99.90
29551;DHT22;16488;52.396;10.696;2023-08-01T08:39:07;16.60;99.90
29551;DHT22;16488;52.396;10.696;2023-08-01T08:41:42;16.60;99.90
29551;DHT22;16488;52.396;10.696;2023-08-01T08:44:11;16.70;99.90
29551;DHT22;16488;52.396;10.696;2023-08-01T08:46:42;16.70;99.90
29551;DHT22;16488;52.396;10.696;2023-08-01T08:49:09;16.80;99.90
29551;DHT22;16488;52.396;10.696;2023-08-01T08:51:36;16.80;99.90
29551;DHT22;16488;52.396;10.696;2023-08-01T08:54:02;16.80;99.90
29551;DHT22;16488;52.396;10.696;2023-08-01T08:56:29;16.80;99.90
29551;DHT22;16488;52.396;10.696;2023-08-01T08:58:54;16.90;99.90
29551;DHT22;16488;52.396;10.696;2023-08-01T09:01:20;17.00;99.90
29551;DHT22;16488;52.396;10.696;2023-08-01T09:03:46;17.10;99.90
29551;DHT22;16488;52.396;10.696;2023-08-01T09:06:24;17.20;99.90
29551;DHT22;16488;52.396;10.696;2023-08-01T09:09:03;17.10;99.90
29551;DHT22;16488;52.396;10.696;2023-08-01T09:11:37;17.10;99.90
29551;DHT22;16488;52.396;10.696;2023-08-01T09:14:04;17.10;99.90
29551;DHT22;16488;52.396;10.696;2023-08-01T09:16:29;17.10;99.90
29551;DHT22;16488;52.396;10.696;2023-08-01T09:18:55;17.20;99.90
29551;DHT22;16488;52.396;10.696;2023-08-01T09:21:21;17.30;99.90
29551;DHT22;16488;52.396;10.696;2023-08-01T09:23:47;17.40;99.90
29551;DHT22;16488;52.396;10.696;2023-08-01T09:26:18;17.50;99.90
29551;DHT22;16488;52.396;10.696;2023-08-01T09:28:43;17.50;99.90
29551;DHT22;16488;52.396;10.696;2023-08-01T09:31:10;17.50;99.90
29551;DHT22;16488;52.396;10.696;2023-08-01T09:33:42;17.60;99.90
29551;DHT22;16488;52.396;10.696;2023-08-01T09:36:08;17.60;99.90
29551;DHT22;16488;52.396;10.696;2023-08-01T09:38:37;17.70;99.90
29551;DHT22;16488;52.396;10.696;2023-08-01T09:41:04;17.80;99.90
29551;DHT22;16488;52.396;10.696;2023-08-01T09:43:36;17.90;99.90
29551;DHT22;16488;52.396;10.696;2023-08-01T09:46:02;18.00;99.90
29551;DHT22;16488;52.396;10.696;2023-08-01T09:48:29;18.20;99.90
29551;DHT22;16488;52.396;10.696;2023-08-01T09:51:11;18.20;99.90
29551;DHT22;16488;52.396;10.696;2023-08-01T09:53:51;18.20;99.90
29551;DHT22;16488;52.396;10.696;2023-08-01T09:56:20;18.10;99.90
29551;DHT22;16488;52.396;10.696;2023-08-01T09:58:47;18.20;99.90
29551;DHT22;16488;52.396;10.696;2023-08-01T10:01:14;18.30;99.90
29551;DHT22;16488;52.396;10.696;2023-08-01T10:03:46;18.20;99.90
29551;DHT22;16488;52.396;10.696;2023-08-01T10:06:21;18.10;99.90
29551;DHT22;16488;52.396;10.696;2023-08-01T10:08:48;18.20;99.90
29551;DHT22;16488;52.396;10.696;2023-08-01T10:11:18;18.40;99.90
29551;DHT22;16488;52.396;10.696;2023-08-01T10:13:45;18.70;99.90
29551;DHT22;16488;52.396;10.696;2023-08-01T10:16:12;18.80;99.90
29551;DHT22;16488;52.396;10.696;2023-08-01T10:18:38;18.80;99.90
29551;DHT22;16488;52.396;10.696;2023-08-01T10:21:10;18.80;99.90
29551;DHT22;16488;52.396;10.696;2023-08-01T10:23:37;18.90;99.90
29551;DHT22;16488;52.396;10.696;2023-08-01T10:26:04;19.10;99.90
29551;DHT22;16488;52.396;10.696;2023-08-01T10:28:38;19.10;99.90
29551;DHT22;16488;52.396;10.696;2023-08-01T10:31:12;19.00;99.90
29551;DHT22;16488;52.396;10.696;2023-08-01T10:33:41;19.00;99.90
29551;DHT22;16488;52.396;10.696;2023-08-01T10:36:13;19.00;99.90
29551;DHT22;16488;52.396;10.696;2023-08-01T10:38:53;19.10;99.90
29551;DHT22;16488;52.396;10.696;2023-08-01T10:41:26;19.10;99.90
29551;DHT22;16488;52.396;10.696;2023-08-01T10:44:08;19.00;99.90
29551;DHT22;16488;52.396;10.696;2023-08-01T10:47:00;19.00;99.90
29551;DHT22;16488;52.396;10.696;2023-08-01T10:49:42;19.00;99.90
29551;DHT22;16488;52.396;10.696;2023-08-01T10:52:18;18.90;99.90
29551;DHT22;16488;52.396;10.696;2023-08-01T10:54:44;18.80;99.90
29551;DHT22;16488;52.396;10.696;2023-08-01T10:57:15;19.10;99.90
29551;DHT22;16488;52.396;10.696;2023-08-01T10:59:40;19.30;99.90
29551;DHT22;16488;52.396;10.696;2023-08-01T11:02:07;19.30;99.90
29551;DHT22;16488;52.396;10.696;2023-08-01T11:04:33;19.50;99.90
29551;DHT22;16488;52.396;10.696;2023-08-01T11:06:58;19.70;99.90
29551;DHT22;16488;52.396;10.696;2023-08-01T11:09:28;19.90;99.90
29551;DHT22;16488;52.396;10.696;2023-08-01T11:11:58;19.90;99.90
29551;DHT22;16488;52.396;10.696;2023-08-01T11:14:30;20.00;99.90
29551;DHT22;16488;52.396;10.696;2023-08-01T11:16:56;20.10;99.90
29551;DHT22;16488;52.396;10.696;2023-08-01T11:19:29;20.10;99.90
29551;DHT22;16488;52.396;10.696;2023-08-01T11:21:56;20.00;99.90
29551;DHT22;16488;52.396;10.696;2023-08-01T11:24:23;20.20;99.90
29551;DHT22;16488;52.396;10.696;2023-08-01T11:26:51;20.30;99.90
29551;DHT22;16488;52.396;10.696;2023-08-01T11:29:18;20.20;99.90
29551;DHT22;16488;52.396;10.696;2023-08-01T11:31:55;20.00;99.90
29551;DHT22;16488;52.396;10.696;2023-08-01T11:34:21;19.90;99.90
29551;DHT22;16488;52.396;10.696;2023-08-01T11:36:47;19.70;99.90
29551;DHT22;16488;52.396;10.696;2023-08-01T11:39:14;19.60;99.90
29551;DHT22;16488;52.396;10.696;2023-08-01T11:41:41;19.80;99.90
29551;DHT22;16488;52.396;10.696;2023-08-01T11:44:07;20.00;99.90
29551;DHT22;16488;52.396;10.696;2023-08-01T11:46:35;20.20;99.90
29551;DHT22;16488;52.396;10.696;2023-08-01T11:49:07;20.30;99.90
29551;DHT22;16488;52.396;10.696;2023-08-01T11:51:41;20.10;99.90
29551;DHT22;16488;52.396;10.696;2023-08-01T11:54:06;19.30;99.90
29551;DHT22;16488;52.396;10.696;2023-08-01T11:56:33;18.70;99.90
29551;DHT22;16488;52.396;10.696;2023-08-01T11:58:59;18.10;99.90
29551;DHT22;16488;52.396;10.696;2023-08-01T12:01:25;17.50;99.90
29551;DHT22;16488;52.396;10.696;2023-08-01T12:03:52;17.30;99.90
29551;DHT22;16488;52.396;10.696;2023-08-01T12:06:20;17.30;99.90
29551;DHT22;16488;52.396;10.696;2023-08-01T12:08:48;17.60;99.90
29551;DHT22;16488;52.396;10.696;2023-08-01T12:13:44;17.90;99.90
29551;DHT22;16488;52.396;10.696;2023-08-01T12:16:09;18.00;99.90
29551;DHT22;16488;52.396;10.696;2023-08-01T12:18:35;18.20;99.90
29551;DHT22;16488;52.396;10.696;2023-08-01T12:21:03;18.60;99.90
29551;DHT22;16488;52.396;10.696;2023-08-01T12:23:31;18.80;99.90
29551;DHT22;16488;52.396;10.696;2023-08-01T12:25:56;19.10;99.90
29551;DHT22;16488;52.396;10.696;2023-08-01T12:28:22;19.10;99.90
29551;DHT22;16488;52.396;10.696;2023-08-01T12:30:47;19.20;99.90
29551;DHT22;16488;52.396;10.696;2023-08-01T12:33:14;19.00;99.90
29551;DHT22;16488;52.396;10.696;2023-08-01T12:35:41;19.00;99.90
29551;DHT22;16488;52.396;10.696;2023-08-01T12:38:08;18.90;99.90
29551;DHT22;16488;52.396;10.696;2023-08-01T12:40:34;18.80;99.90
29551;DHT22;16488;52.396;10.696;2023-08-01T12:42:59;18.80;99.90
29551;DHT22;16488;52.396;10.696;2023-08-01T12:45:25;18.60;99.90
29551;DHT22;16488;52.396;10.696;2023-08-01T12:47:51;18.60;99.90
29551;DHT22;16488;52.396;10.696;2023-08-01T12:50:16;18.40;99.90
29551;DHT22;16488;52.396;10.696;2023-08-01T12:52:42;18.20;99.90
29551;DHT22;16488;52.396;10.696;2023-08-01T12:55:08;18.10;99.90
29551;DHT22;16488;52.396;10.696;2023-08-01T12:57:33;17.90;99.90
29551;DHT22;16488;52.396;10.696;2023-08-01T12:59:59;17.70;99.90
29551;DHT22;16488;52.396;10.696;2023-08-01T13:02:26;17.70;99.90
29551;DHT22;16488;52.396;10.696;2023-08-01T13:04:52;17.80;99.90
29551;DHT22;16488;52.396;10.696;2023-08-01T13:07:17;18.00;99.90
29551;DHT22;16488;52.396;10.696;2023-08-01T13:09:43;18.20;99.90
29551;DHT22;16488;52.396;10.696;2023-08-01T13:12:08;18.30;99.90
29551;DHT22;16488;52.396;10.696;2023-08-01T13:14:34;18.30;99.90
29551;DHT22;16488;52.396;10.696;2023-08-01T13:17:00;18.40;99.90
29551;DHT22;16488;52.396;10.696;2023-08-01T13:19:25;18.40;99.90
29551;DHT22;16488;52.396;10.696;2023-08-01T13:21:51;18.50;99.90
29551;DHT22;16488;52.396;10.696;2023-08-01T13:24:16;18.70;99.90
29551;DHT22;16488;52.396;10.696;2023-08-01T13:26:42;18.80;99.90
29551;DHT22;16488;52.396;10.696;2023-08-01T13:29:08;18.80;99.90
29551;DHT22;16488;52.396;10.696;2023-08-01T13:31:33;18.90;99.90
29551;DHT22;16488;52.396;10.696;2023-08-01T13:33:59;18.90;99.90
29551;DHT22;16488;52.396;10.696;2023-08-01T13:36:24;18.90;99.90
29551;DHT22;16488;52.396;10.696;2023-08-01T13:38:50;18.80;99.90
29551;DHT22;16488;52.396;10.696;2023-08-01T13:41:16;18.80;99.90
29551;DHT22;16488;52.396;10.696;2023-08-01T13:43:42;18.80;99.90
29551;DHT22;16488;52.396;10.696;2023-08-01T13:46:14;18.80;99.90
29551;DHT22;16488;52.396;10.696;2023-08-01T13:48:41;18.70;99.90
29551;DHT22;16488;52.396;10.696;2023-08-01T13:51:06;18.70;99.90
29551;DHT22;16488;52.396;10.696;2023-08-01T13:53:32;18.70;99.90
29551;DHT22;16488;52.396;10.696;2023-08-01T13:55:59;18.70;99.90
29551;DHT22;16488;52.396;10.696;2023-08-01T13:58:24;18.70;99.90
29551;DHT22;16488;52.396;10.696;2023-08-01T14:00:50;18.70;99.90
29551;DHT22;16488;52.396;10.696;2023-08-01T14:03:16;18.80;99.90
29551;DHT22;16488;52.396;10.696;2023-08-01T14:05:41;18.90;99.90
29551;DHT22;16488;52.396;10.696;2023-08-01T14:08:07;18.80;99.90
29551;DHT22;16488;52.396;10.696;2023-08-01T14:10:33;18.70;99.90
29551;DHT22;16488;52.396;10.696;2023-08-01T14:12:58;18.60;99.90
29551;DHT22;16488;52.396;10.696;2023-08-01T14:15:24;18.60;99.90
29551;DHT22;16488;52.396;10.696;2023-08-01T14:17:50;18.50;99.90
29551;DHT22;16488;52.396;10.696;2023-08-01T14:20:15;18.50;99.90
29551;DHT22;16488;52.396;10.696;2023-08-01T14:22:41;18.50;99.90
29551;DHT22;16488;52.396;10.696;2023-08-01T14:25:08;18.50;99.90
29551;DHT22;16488;52.396;10.696;2023-08-01T14:27:34;18.40;99.90
29551;DHT22;16488;52.396;10.696;2023-08-01T14:30:00;18.30;99.90
29551;DHT22;16488;52.396;10.696;2023-08-01T14:32:27;18.20;99.90
29551;DHT22;16488;52.396;10.696;2023-08-01T14:34:52;18.00;99.90
29551;DHT22;16488;52.396;10.696;2023-08-01T14:37:18;17.40;99.90
29551;DHT22;16488;52.396;10.696;2023-08-01T14:39:44;17.00;99.90
29551;DHT22;16488;52.396;10.696;2023-08-01T14:42:09;16.80;99.90
29551;DHT22;16488;52.396;10.696;2023-08-01T14:44:35;16.70;99.90
29551;DHT22;16488;52.396;10.696;2023-08-01T14:47:01;16.60;99.90
29551;DHT22;16488;52.396;10.696;2023-08-01T14:49:26;16.50;99.90
29551;DHT22;16488;52.396;10.696;2023-08-01T14:51:54;16.60;99.90
29551;DHT22;16488;52.396;10.696;2023-08-01T14:54:20;16.70;99.90
29551;DHT22;16488;52.396;10.696;2023-08-01T14:56:45;16.70;99.90
29551;DHT22;16488;52.396;10.696;2023-08-01T14:59:11;17.10;99.90
29551;DHT22;16488;52.396;10.696;2023-08-01T15:01:36;17.30;99.90
29551;DHT22;16488;52.396;10.696;2023-08-01T15:04:03;17.60;99.90
29551;DHT22;16488;52.396;10.696;2023-08-01T15:06:28;17.90;99.90
29551;DHT22;16488;52.396;10.696;2023-08-01T15:08:54;18.10;99.90
29551;DHT22;16488;52.396;10.696;2023-08-01T15:11:20;18.30;99.90
29551;DHT22;16488;52.396;10.696;2023-08-01T15:13:46;18.60;99.90
29551;DHT22;16488;52.396;10.696;2023-08-01T15:16:12;18.70;99.90
29551;DHT22;16488;52.396;10.696;2023-08-01T15:18:37;18.60;99.90